createdAt,value
2018-07-06T00:00:23.190Z,0.00
2018-07-06T00:01:23.157Z,0.00
2018-07-06T00:02:23.145Z,0.00
2018-07-06T00:03:23.205Z,0.00
2018-07-06T00:04:23.046Z,0.00
2018-07-06T00:05:23.007Z,0.00
2018-07-06T00:06:23.106Z,0.00
2018-07-06T00:07:22.948Z,0.00
2018-07-06T00:08:22.914Z,0.00
2018-07-06T00:09:22.871Z,0.00
2018-07-06T00:10:22.844Z,0.00
2018-07-06T00:11:22.819Z,0.00
2018-07-06T00:12:22.812Z,0.00
2018-07-06T00:13:22.753Z,0.00
2018-07-06T00:14:22.721Z,0.00
2018-07-06T00:15:22.696Z,0.00
2018-07-06T00:16:22.675Z,0.00
2018-07-06T00:17:22.624Z,0.00
2018-07-06T00:18:22.605Z,0.00
2018-07-06T00:19:22.560Z,0.00
2018-07-06T00:20:22.516Z,0.00
2018-07-06T00:21:22.487Z,0.00
2018-07-06T00:22:22.463Z,0.00
2018-07-06T00:23:22.415Z,0.00
2018-07-06T00:24:22.379Z,0.00
2018-07-06T00:25:22.352Z,0.00
2018-07-06T00:26:22.314Z,0.00
2018-07-06T00:27:22.293Z,0.00
2018-07-06T00:28:22.253Z,0.00
2018-07-06T00:29:22.240Z,0.00
2018-07-06T00:30:22.237Z,0.00
2018-07-06T00:31:22.141Z,0.00
2018-07-06T00:32:22.124Z,0.00
2018-07-06T00:33:22.085Z,0.00
2018-07-06T00:34:22.048Z,0.00
2018-07-06T00:35:22.036Z,0.00
2018-07-06T00:36:21.974Z,0.00
2018-07-06T00:37:21.960Z,0.00
2018-07-06T00:38:21.908Z,0.00
2018-07-06T00:39:21.891Z,0.00
2018-07-06T00:40:21.874Z,0.00
2018-07-06T00:41:21.814Z,0.00
2018-07-06T00:42:21.799Z,0.00
2018-07-06T00:43:21.749Z,0.00
2018-07-06T00:44:21.708Z,0.00
2018-07-06T00:45:21.683Z,0.00
2018-07-06T00:46:21.658Z,0.00
2018-07-06T00:47:21.638Z,0.00
2018-07-06T00:48:21.582Z,0.00
2018-07-06T00:49:21.548Z,0.00
2018-07-06T00:50:21.515Z,0.00
2018-07-06T00:51:21.514Z,0.00
2018-07-06T00:52:21.460Z,0.00
2018-07-06T00:53:21.496Z,0.00
2018-07-06T00:54:21.423Z,0.00
2018-07-06T00:55:21.459Z,0.00
2018-07-06T00:56:21.337Z,0.00
2018-07-06T00:57:21.301Z,0.00
2018-07-06T00:58:21.256Z,0.00
2018-07-06T00:59:21.226Z,0.00
2018-07-06T01:00:21.173Z,0.00
2018-07-06T01:01:21.165Z,0.00
2018-07-06T01:02:21.117Z,0.00
2018-07-06T01:03:21.105Z,0.00
2018-07-06T01:04:21.060Z,0.00
2018-07-06T01:05:21.022Z,0.00
2018-07-06T01:06:21.023Z,0.00
2018-07-06T01:07:20.959Z,0.00
2018-07-06T01:08:20.984Z,0.00
2018-07-06T01:09:20.977Z,0.00
2018-07-06T01:10:20.928Z,0.00
2018-07-06T01:11:20.823Z,0.00
2018-07-06T01:12:20.833Z,0.00
2018-07-06T01:13:20.772Z,0.00
2018-07-06T01:14:20.733Z,0.00
2018-07-06T01:15:20.696Z,0.00
2018-07-06T01:16:20.656Z,0.00
2018-07-06T01:17:20.635Z,0.00
2018-07-06T01:18:20.595Z,0.00
2018-07-06T01:19:20.581Z,0.00
2018-07-06T01:20:20.518Z,0.00
2018-07-06T01:21:20.484Z,0.00
2018-07-06T01:22:20.453Z,0.00
2018-07-06T01:23:20.417Z,0.00
2018-07-06T01:24:20.392Z,0.00
2018-07-06T01:25:20.350Z,0.00
2018-07-06T01:26:20.342Z,0.00
2018-07-06T01:27:20.292Z,0.00
2018-07-06T01:28:20.268Z,0.00
2018-07-06T01:29:20.213Z,0.00
2018-07-06T01:30:20.205Z,0.00
2018-07-06T01:31:20.166Z,0.00
2018-07-06T01:32:20.142Z,0.00
2018-07-06T01:33:20.096Z,0.00
2018-07-06T01:34:20.055Z,0.00
2018-07-06T01:35:20.031Z,0.00
2018-07-06T01:36:20.008Z,0.00
2018-07-06T01:37:19.960Z,0.00
2018-07-06T01:38:19.926Z,0.00
2018-07-06T01:39:19.908Z,0.00
2018-07-06T01:40:19.855Z,0.00
2018-07-06T01:41:19.832Z,0.00
2018-07-06T01:42:19.798Z,0.00
2018-07-06T01:43:19.762Z,0.00
2018-07-06T01:44:19.725Z,0.00
2018-07-06T01:45:19.684Z,0.00
2018-07-06T01:46:19.660Z,0.00
2018-07-06T01:47:19.618Z,0.00
2018-07-06T01:48:19.595Z,0.00
2018-07-06T01:49:19.554Z,0.00
2018-07-06T01:50:19.525Z,0.00
2018-07-06T01:51:19.485Z,0.00
2018-07-06T01:52:19.452Z,0.00
2018-07-06T01:53:19.445Z,0.00
2018-07-06T01:54:19.376Z,0.00
2018-07-06T01:55:19.384Z,0.00
2018-07-06T01:56:19.308Z,0.00
2018-07-06T01:57:19.284Z,0.00
2018-07-06T01:58:19.258Z,0.00
2018-07-06T01:59:19.224Z,0.00
2018-07-06T02:00:19.213Z,0.00
2018-07-06T02:01:19.151Z,0.00
2018-07-06T02:02:19.121Z,0.00
2018-07-06T02:03:19.089Z,0.00
2018-07-06T02:04:19.048Z,0.00
2018-07-06T02:05:19.032Z,0.00
2018-07-06T02:06:18.984Z,0.00
2018-07-06T02:07:18.946Z,0.00
2018-07-06T02:08:18.925Z,0.00
2018-07-06T02:09:18.876Z,0.00
2018-07-06T02:10:18.873Z,0.00
2018-07-06T02:11:18.821Z,0.00
2018-07-06T02:12:18.781Z,0.00
2018-07-06T02:13:18.749Z,0.00
2018-07-06T02:14:18.724Z,0.00
2018-07-06T02:15:18.692Z,0.00
2018-07-06T02:16:18.668Z,0.00
2018-07-06T02:17:18.610Z,0.00
2018-07-06T02:18:18.605Z,0.00
2018-07-06T02:19:18.566Z,0.00
2018-07-06T02:20:18.523Z,0.00
2018-07-06T02:21:18.481Z,0.00
2018-07-06T02:22:18.440Z,0.00
2018-07-06T02:23:18.430Z,0.00
2018-07-06T02:24:18.390Z,0.00
2018-07-06T02:25:19.115Z,0.00
2018-07-06T02:26:18.390Z,0.00
2018-07-06T02:27:18.308Z,0.00
2018-07-06T02:28:18.265Z,0.00
2018-07-06T02:29:18.284Z,0.00
2018-07-06T02:30:18.203Z,0.00
2018-07-06T02:31:18.157Z,0.00
2018-07-06T02:32:18.134Z,0.00
2018-07-06T02:33:18.076Z,0.00
2018-07-06T02:34:18.030Z,0.00
2018-07-06T02:35:18.033Z,0.00
2018-07-06T02:36:18.046Z,0.00
2018-07-06T02:37:17.943Z,0.00
2018-07-06T02:38:17.937Z,0.00
2018-07-06T02:39:17.927Z,0.00
2018-07-06T02:40:17.846Z,0.00
2018-07-06T02:41:17.815Z,0.00
2018-07-06T02:42:17.777Z,0.00
2018-07-06T02:43:17.753Z,0.00
2018-07-06T02:44:17.745Z,0.00
2018-07-06T02:45:17.675Z,0.00
2018-07-06T02:46:17.663Z,0.00
2018-07-06T02:47:17.619Z,0.00
2018-07-06T02:48:17.582Z,0.00
2018-07-06T02:49:17.543Z,0.00
2018-07-06T02:50:17.512Z,0.00
2018-07-06T02:51:17.468Z,0.00
2018-07-06T02:52:17.436Z,0.00
2018-07-06T02:53:17.418Z,0.00
2018-07-06T02:54:17.391Z,0.00
2018-07-06T02:55:17.395Z,0.00
2018-07-06T02:56:17.315Z,0.00
2018-07-06T02:57:17.297Z,0.00
2018-07-06T02:58:17.240Z,5.63
2018-07-06T02:59:17.248Z,5.63
2018-07-06T03:00:17.184Z,5.63
2018-07-06T03:01:17.153Z,5.63
2018-07-06T03:02:17.110Z,5.63
2018-07-06T03:03:17.063Z,5.63
2018-07-06T03:04:17.026Z,5.63
2018-07-06T03:05:17.012Z,5.63
2018-07-06T03:06:16.981Z,5.63
2018-07-06T03:07:16.944Z,5.63
2018-07-06T03:08:16.942Z,5.63
2018-07-06T03:09:16.884Z,5.63
2018-07-06T03:10:16.841Z,5.63
2018-07-06T03:11:16.792Z,5.63
2018-07-06T03:12:16.772Z,5.63
2018-07-06T03:13:16.741Z,5.63
2018-07-06T03:14:16.707Z,5.63
2018-07-06T03:15:16.678Z,5.63
2018-07-06T03:16:16.639Z,5.63
2018-07-06T03:17:16.610Z,5.63
2018-07-06T03:18:16.560Z,5.63
2018-07-06T03:19:16.534Z,11.25
2018-07-06T03:20:16.507Z,11.25
2018-07-06T03:21:16.479Z,11.25
2018-07-06T03:22:16.447Z,5.63
2018-07-06T03:23:16.424Z,5.63
2018-07-06T03:24:16.391Z,5.63
2018-07-06T03:25:16.320Z,5.63
2018-07-06T03:26:16.293Z,5.63
2018-07-06T03:27:16.283Z,5.63
2018-07-06T03:28:16.287Z,11.25
2018-07-06T03:29:16.237Z,11.25
2018-07-06T03:30:16.169Z,11.25
2018-07-06T03:31:16.133Z,11.25
2018-07-06T03:32:16.102Z,11.25
2018-07-06T03:33:16.077Z,11.25
2018-07-06T03:34:16.033Z,11.25
2018-07-06T03:35:15.994Z,11.25
2018-07-06T03:36:15.962Z,11.25
2018-07-06T03:37:15.951Z,11.25
2018-07-06T03:38:15.913Z,11.25
2018-07-06T03:39:15.870Z,16.88
2018-07-06T03:40:15.843Z,16.88
2018-07-06T03:41:15.816Z,16.88
2018-07-06T03:42:15.770Z,22.50
2018-07-06T03:43:15.726Z,22.50
2018-07-06T03:44:15.693Z,28.13
2018-07-06T03:45:15.646Z,33.75
2018-07-06T03:46:15.616Z,33.75
2018-07-06T03:47:15.594Z,39.38
2018-07-06T03:48:15.554Z,45.00
2018-07-06T03:49:15.559Z,50.63
2018-07-06T03:50:15.500Z,50.63
2018-07-06T03:51:15.478Z,56.25
2018-07-06T03:52:15.433Z,56.25
2018-07-06T03:53:15.412Z,61.88
2018-07-06T03:54:15.382Z,67.50
2018-07-06T03:55:15.338Z,67.50
2018-07-06T03:56:15.290Z,73.13
2018-07-06T03:57:15.258Z,78.75
2018-07-06T03:58:15.256Z,78.75
2018-07-06T03:59:15.204Z,84.38
2018-07-06T04:00:15.165Z,84.38
2018-07-06T04:01:15.128Z,90.00
2018-07-06T04:02:15.091Z,95.63
2018-07-06T04:03:15.051Z,101.25
2018-07-06T04:04:15.034Z,101.25
2018-07-06T04:05:15.006Z,101.25
2018-07-06T04:06:14.957Z,106.88
2018-07-06T04:07:14.936Z,106.88
2018-07-06T04:08:14.887Z,112.50
2018-07-06T04:09:14.919Z,123.75
2018-07-06T04:10:14.819Z,129.38
2018-07-06T04:11:14.798Z,135.00
2018-07-06T04:12:14.767Z,140.63
2018-07-06T04:13:14.750Z,140.63
2018-07-06T04:14:14.718Z,146.25
2018-07-06T04:15:14.661Z,151.88
2018-07-06T04:16:14.621Z,157.50
2018-07-06T04:17:14.681Z,163.13
2018-07-06T04:18:14.552Z,168.75
2018-07-06T04:19:14.550Z,174.38
2018-07-06T04:20:14.502Z,180.00
2018-07-06T04:21:14.446Z,185.63
2018-07-06T04:22:14.437Z,185.63
2018-07-06T04:23:14.387Z,191.25
2018-07-06T04:24:14.363Z,191.25
2018-07-06T04:25:14.333Z,196.88
2018-07-06T04:26:14.301Z,202.50
2018-07-06T04:27:14.265Z,208.13
2018-07-06T04:28:14.250Z,213.75
2018-07-06T04:29:14.197Z,219.38
2018-07-06T04:30:14.184Z,225.00
2018-07-06T04:31:14.140Z,236.25
2018-07-06T04:32:14.080Z,230.63
2018-07-06T04:33:14.061Z,236.25
2018-07-06T04:34:14.020Z,236.25
2018-07-06T04:35:14.000Z,247.50
2018-07-06T04:36:13.962Z,270.00
2018-07-06T04:37:13.916Z,292.50
2018-07-06T04:38:13.902Z,315.00
2018-07-06T04:39:13.855Z,326.25
2018-07-06T04:40:13.845Z,348.75
2018-07-06T04:41:13.813Z,360.00
2018-07-06T04:42:13.799Z,365.63
2018-07-06T04:43:13.783Z,365.63
2018-07-06T04:44:13.755Z,360.00
2018-07-06T04:45:13.684Z,348.75
2018-07-06T04:46:13.651Z,343.13
2018-07-06T04:47:13.596Z,331.88
2018-07-06T04:48:13.576Z,331.88
2018-07-06T04:49:13.609Z,331.88
2018-07-06T04:50:13.500Z,326.25
2018-07-06T04:51:13.485Z,315.00
2018-07-06T04:52:13.449Z,309.38
2018-07-06T04:53:13.458Z,309.38
2018-07-06T04:54:13.402Z,309.38
2018-07-06T04:55:13.351Z,320.63
2018-07-06T04:56:13.319Z,326.25
2018-07-06T04:57:13.257Z,337.50
2018-07-06T04:58:13.228Z,343.13
2018-07-06T04:59:13.233Z,348.75
2018-07-06T05:00:13.169Z,348.75
2018-07-06T05:01:13.143Z,337.50
2018-07-06T05:02:13.217Z,326.25
2018-07-06T05:03:13.089Z,309.38
2018-07-06T05:04:13.077Z,303.75
2018-07-06T05:05:13.108Z,303.75
2018-07-06T05:06:12.993Z,309.38
2018-07-06T05:07:13.022Z,315.00
2018-07-06T05:08:12.914Z,315.00
2018-07-06T05:09:12.885Z,309.38
2018-07-06T05:10:12.888Z,303.75
2018-07-06T05:11:12.818Z,309.38
2018-07-06T05:12:12.794Z,326.25
2018-07-06T05:13:12.750Z,337.50
2018-07-06T05:14:12.779Z,348.75
2018-07-06T05:15:12.685Z,365.63
2018-07-06T05:16:12.636Z,388.13
2018-07-06T05:17:12.619Z,416.25
2018-07-06T05:18:12.579Z,433.13
2018-07-06T05:19:12.569Z,450.00
2018-07-06T05:20:12.518Z,455.63
2018-07-06T05:21:12.514Z,450.00
2018-07-06T05:22:12.466Z,450.00
2018-07-06T05:23:12.444Z,438.75
2018-07-06T05:24:12.415Z,438.75
2018-07-06T05:25:12.398Z,438.75
2018-07-06T05:26:12.346Z,444.38
2018-07-06T05:27:12.303Z,450.00
2018-07-06T05:28:12.268Z,455.63
2018-07-06T05:29:12.219Z,466.88
2018-07-06T05:30:12.211Z,472.50
2018-07-06T05:31:12.164Z,489.38
2018-07-06T05:32:12.154Z,500.63
2018-07-06T05:33:12.098Z,517.50
2018-07-06T05:34:12.079Z,540.00
2018-07-06T05:35:12.068Z,562.50
2018-07-06T05:36:11.997Z,573.75
2018-07-06T05:37:11.960Z,590.63
2018-07-06T05:38:11.940Z,601.88
2018-07-06T05:39:11.894Z,613.13
2018-07-06T05:40:11.885Z,618.75
2018-07-06T05:41:11.849Z,624.38
2018-07-06T05:42:11.829Z,624.38
2018-07-06T05:43:11.782Z,630.00
2018-07-06T05:44:11.755Z,624.38
2018-07-06T05:45:11.710Z,618.75
2018-07-06T05:46:11.667Z,607.50
2018-07-06T05:47:11.659Z,596.25
2018-07-06T05:48:11.621Z,585.00
2018-07-06T05:49:11.582Z,579.38
2018-07-06T05:50:11.536Z,568.13
2018-07-06T05:51:11.512Z,562.50
2018-07-06T05:52:11.487Z,562.50
2018-07-06T05:53:11.460Z,556.88
2018-07-06T05:54:11.465Z,545.63
2018-07-06T05:55:11.382Z,540.00
2018-07-06T05:56:11.397Z,540.00
2018-07-06T05:57:11.320Z,534.38
2018-07-06T05:58:11.287Z,517.50
2018-07-06T05:59:11.285Z,506.25
2018-07-06T06:00:11.221Z,517.50
2018-07-06T06:01:11.188Z,534.38
2018-07-06T06:02:11.162Z,551.25
2018-07-06T06:03:11.133Z,579.38
2018-07-06T06:04:11.110Z,601.88
2018-07-06T06:05:11.065Z,630.00
2018-07-06T06:06:11.016Z,663.75
2018-07-06T06:07:10.989Z,680.63
2018-07-06T06:08:10.992Z,686.25
2018-07-06T06:09:10.928Z,697.50
2018-07-06T06:10:10.892Z,742.50
2018-07-06T06:11:10.849Z,804.38
2018-07-06T06:12:10.854Z,866.25
2018-07-06T06:13:10.806Z,945.00
2018-07-06T06:14:10.762Z,1023.75
2018-07-06T06:15:10.739Z,1046.25
2018-07-06T06:16:10.704Z,1125.00
2018-07-06T06:17:10.666Z,1260.00
2018-07-06T06:18:10.638Z,1400.63
2018-07-06T06:19:10.609Z,1496.25
2018-07-06T06:20:10.584Z,1423.13
2018-07-06T06:21:10.537Z,1344.38
2018-07-06T06:22:10.499Z,1293.75
2018-07-06T06:23:10.495Z,1299.38
2018-07-06T06:24:10.445Z,1299.38
2018-07-06T06:25:10.426Z,1310.63
2018-07-06T06:26:10.473Z,1305.00
2018-07-06T06:27:10.378Z,1243.13
2018-07-06T06:28:10.326Z,1192.50
2018-07-06T06:29:10.295Z,1175.63
2018-07-06T06:30:10.267Z,1158.75
2018-07-06T06:31:10.222Z,1158.75
2018-07-06T06:32:10.182Z,1175.63
2018-07-06T06:33:10.404Z,1226.25
2018-07-06T06:34:10.152Z,1282.50
2018-07-06T06:35:10.096Z,1355.63
2018-07-06T06:36:10.142Z,1406.25
2018-07-06T06:37:10.045Z,1440.00
2018-07-06T06:38:10.021Z,1473.75
2018-07-06T06:39:09.970Z,1513.13
2018-07-06T06:40:09.976Z,1603.13
2018-07-06T06:41:09.901Z,1681.88
2018-07-06T06:42:09.888Z,1749.38
2018-07-06T06:43:09.845Z,1805.63
2018-07-06T06:44:09.848Z,1890.00
2018-07-06T06:45:09.788Z,1985.63
2018-07-06T06:46:09.746Z,2058.75
2018-07-06T06:47:09.721Z,2165.63
2018-07-06T06:48:09.706Z,2328.75
2018-07-06T06:49:09.664Z,2317.50
2018-07-06T06:50:09.627Z,2199.38
2018-07-06T06:51:09.606Z,2075.63
2018-07-06T06:52:09.562Z,1946.25
2018-07-06T06:53:09.575Z,1845.00
2018-07-06T06:54:09.519Z,1771.88
2018-07-06T06:55:09.540Z,1603.13
2018-07-06T06:56:09.465Z,1473.75
2018-07-06T06:57:09.423Z,1338.75
2018-07-06T06:58:09.385Z,1231.88
2018-07-06T06:59:09.475Z,1158.75
2018-07-06T07:00:09.324Z,1136.25
2018-07-06T07:01:09.304Z,1164.38
2018-07-06T07:02:09.277Z,1203.75
2018-07-06T07:03:09.247Z,1243.13
2018-07-06T07:04:09.202Z,1310.63
2018-07-06T07:05:09.188Z,1383.75
2018-07-06T07:06:09.264Z,1445.63
2018-07-06T07:07:09.162Z,1513.13
2018-07-06T07:08:09.120Z,1563.75
2018-07-06T07:09:09.095Z,1558.13
2018-07-06T07:10:09.155Z,1518.75
2018-07-06T07:11:08.995Z,1473.75
2018-07-06T07:12:08.995Z,1400.63
2018-07-06T07:13:08.968Z,1288.13
2018-07-06T07:14:08.930Z,1198.13
2018-07-06T07:15:08.887Z,1170.00
2018-07-06T07:16:08.876Z,1220.63
2018-07-06T07:17:08.832Z,1260.00
2018-07-06T07:18:08.818Z,1254.38
2018-07-06T07:19:08.763Z,1220.63
2018-07-06T07:20:08.731Z,1186.88
2018-07-06T07:21:08.731Z,1186.88
2018-07-06T07:22:08.755Z,1203.75
2018-07-06T07:23:08.642Z,1186.88
2018-07-06T07:24:08.605Z,1164.38
2018-07-06T07:25:08.608Z,1164.38
2018-07-06T07:26:08.628Z,1192.50
2018-07-06T07:27:08.528Z,1248.75
2018-07-06T07:28:08.550Z,1344.38
2018-07-06T07:29:08.533Z,1451.25
2018-07-06T07:30:08.524Z,1485.00
2018-07-06T07:31:08.428Z,1434.38
2018-07-06T07:32:08.395Z,1350.00
2018-07-06T07:33:08.370Z,1355.63
2018-07-06T07:34:08.315Z,1411.88
2018-07-06T07:35:08.322Z,1496.25
2018-07-06T07:36:08.278Z,1575.00
2018-07-06T07:37:08.238Z,1586.25
2018-07-06T07:38:08.222Z,1513.13
2018-07-06T07:39:08.166Z,1372.50
2018-07-06T07:40:08.286Z,1248.75
2018-07-06T07:41:08.156Z,1192.50
2018-07-06T07:42:08.121Z,1181.25
2018-07-06T07:43:08.044Z,1186.88
2018-07-06T07:44:08.080Z,1198.13
2018-07-06T07:45:07.992Z,1288.13
2018-07-06T07:46:07.969Z,1456.88
2018-07-06T07:47:07.956Z,1625.63
2018-07-06T07:48:07.946Z,1805.63
2018-07-06T07:49:07.880Z,1861.88
2018-07-06T07:50:07.854Z,2176.88
2018-07-06T07:51:07.943Z,1710.00
2018-07-06T07:52:07.835Z,1833.75
2018-07-06T07:53:07.752Z,2030.63
2018-07-06T07:54:07.742Z,2295.00
2018-07-06T07:55:07.710Z,2638.13
2018-07-06T07:56:07.649Z,1968.75
2018-07-06T07:57:07.644Z,1890.00
2018-07-06T07:58:07.596Z,1923.75
2018-07-06T07:59:07.565Z,1828.13
2018-07-06T08:00:07.542Z,1524.38
2018-07-06T08:01:07.746Z,1507.50
2018-07-06T08:02:07.478Z,1580.63
2018-07-06T08:03:07.455Z,1721.25
2018-07-06T08:04:07.423Z,1890.00
2018-07-06T08:05:07.386Z,1816.88
2018-07-06T08:06:07.374Z,1597.50
2018-07-06T08:07:07.352Z,1698.75
2018-07-06T08:08:07.299Z,1676.25
2018-07-06T08:09:07.274Z,1912.50
2018-07-06T08:10:07.250Z,1771.88
2018-07-06T08:11:07.230Z,1963.13
2018-07-06T08:12:07.197Z,3538.13
2018-07-06T08:13:07.164Z,4404.38
2018-07-06T08:14:07.142Z,4320.00
2018-07-06T08:15:07.111Z,4089.38
2018-07-06T08:16:07.079Z,4134.38
2018-07-06T08:17:07.060Z,4426.88
2018-07-06T08:18:07.046Z,4646.25
2018-07-06T08:19:06.999Z,4550.63
2018-07-06T08:20:06.967Z,4775.63
2018-07-06T08:21:06.945Z,4725.00
2018-07-06T08:22:06.918Z,3262.50
2018-07-06T08:23:06.901Z,2565.00
2018-07-06T08:24:06.908Z,5360.63
2018-07-06T08:25:06.839Z,5045.63
2018-07-06T08:26:06.824Z,4758.75
2018-07-06T08:27:06.844Z,3948.75
2018-07-06T08:28:06.748Z,2711.25
2018-07-06T08:29:06.739Z,2266.88
2018-07-06T08:30:06.707Z,2216.25
2018-07-06T08:31:06.719Z,1918.13
2018-07-06T08:32:06.653Z,2131.88
2018-07-06T08:33:06.630Z,1771.88
2018-07-06T08:34:06.606Z,1715.63
2018-07-06T08:35:06.589Z,1608.75
2018-07-06T08:36:06.557Z,1597.50
2018-07-06T08:37:06.572Z,1631.25
2018-07-06T08:38:06.502Z,1659.38
2018-07-06T08:39:06.520Z,1704.38
2018-07-06T08:40:06.457Z,1800.00
2018-07-06T08:41:06.537Z,1951.88
2018-07-06T08:42:06.417Z,2075.63
2018-07-06T08:43:06.443Z,2266.88
2018-07-06T08:44:06.372Z,2233.13
2018-07-06T08:45:06.389Z,2238.75
2018-07-06T08:46:06.305Z,2491.88
2018-07-06T08:47:06.278Z,4921.88
2018-07-06T08:48:06.262Z,3133.13
2018-07-06T08:49:06.257Z,2761.88
2018-07-06T08:50:06.221Z,3048.75
2018-07-06T08:51:06.183Z,2452.50
2018-07-06T08:52:06.143Z,2261.25
2018-07-06T08:53:06.143Z,2244.38
2018-07-06T08:54:06.095Z,2306.25
2018-07-06T08:55:06.114Z,3015.00
2018-07-06T08:56:06.045Z,3819.38
2018-07-06T08:57:06.029Z,2655.00
2018-07-06T08:58:06.022Z,3026.25
2018-07-06T08:59:06.015Z,3268.13
2018-07-06T09:00:05.945Z,2688.75
2018-07-06T09:01:05.947Z,2238.75
2018-07-06T09:02:05.900Z,2334.38
2018-07-06T09:03:05.883Z,2610.00
2018-07-06T09:04:05.885Z,2868.75
2018-07-06T09:05:05.809Z,2610.00
2018-07-06T09:06:05.788Z,2829.38
2018-07-06T09:07:05.776Z,3127.50
2018-07-06T09:08:05.758Z,2823.75
2018-07-06T09:09:05.704Z,2520.00
2018-07-06T09:10:05.695Z,2221.88
2018-07-06T09:11:05.671Z,2199.38
2018-07-06T09:12:05.638Z,2345.63
2018-07-06T09:13:05.767Z,2598.75
2018-07-06T09:14:05.595Z,3459.38
2018-07-06T09:15:05.565Z,2565.00
2018-07-06T09:16:05.559Z,2379.38
2018-07-06T09:17:05.521Z,2761.88
2018-07-06T09:18:05.505Z,1901.25
2018-07-06T09:19:05.475Z,1704.38
2018-07-06T09:20:05.570Z,1423.13
2018-07-06T09:21:05.432Z,1271.25
2018-07-06T09:22:05.439Z,1237.50
2018-07-06T09:23:05.377Z,1282.50
2018-07-06T09:24:05.433Z,1361.25
2018-07-06T09:25:05.331Z,1468.13
2018-07-06T09:26:05.475Z,1586.25
2018-07-06T09:27:05.263Z,1659.38
2018-07-06T09:28:05.300Z,1715.63
2018-07-06T09:29:05.209Z,1788.75
2018-07-06T09:30:05.190Z,1845.00
2018-07-06T09:31:05.171Z,1878.75
2018-07-06T09:32:05.134Z,1940.63
2018-07-06T09:33:05.158Z,1991.25
2018-07-06T09:34:05.088Z,2075.63
2018-07-06T09:35:05.057Z,2233.13
2018-07-06T09:36:05.033Z,2396.25
2018-07-06T09:37:05.001Z,2463.75
2018-07-06T09:38:04.976Z,2610.00
2018-07-06T09:39:04.947Z,2289.38
2018-07-06T09:40:04.923Z,2199.38
2018-07-06T09:41:04.896Z,2137.50
2018-07-06T09:42:04.869Z,2098.13
2018-07-06T09:43:04.836Z,2058.75
2018-07-06T09:44:04.812Z,1957.50
2018-07-06T09:45:04.797Z,1929.38
2018-07-06T09:46:04.800Z,1985.63
2018-07-06T09:47:04.734Z,2030.63
2018-07-06T09:48:04.715Z,2036.25
2018-07-06T09:49:04.672Z,2086.88
2018-07-06T09:50:04.644Z,2193.75
2018-07-06T09:51:04.634Z,2373.75
2018-07-06T09:52:04.591Z,2604.38
2018-07-06T09:53:04.579Z,2812.50
2018-07-06T09:54:04.543Z,3228.75
2018-07-06T09:55:04.511Z,2986.88
2018-07-06T09:56:04.485Z,3200.63
2018-07-06T09:57:04.464Z,2908.13
2018-07-06T09:58:04.467Z,3628.13
2018-07-06T09:59:04.435Z,6429.38
2018-07-06T10:00:04.381Z,6435.00
2018-07-06T10:01:04.377Z,3588.75
2018-07-06T10:02:04.329Z,2503.13
2018-07-06T10:03:04.316Z,2199.38
2018-07-06T10:04:04.281Z,1951.88
2018-07-06T10:05:04.264Z,1766.25
2018-07-06T10:06:04.248Z,1586.25
2018-07-06T10:07:04.221Z,1428.75
2018-07-06T10:08:04.171Z,1333.13
2018-07-06T10:09:04.155Z,1333.13
2018-07-06T10:10:04.169Z,1406.25
2018-07-06T10:11:04.109Z,1552.50
2018-07-06T10:12:04.090Z,1783.13
2018-07-06T10:13:04.070Z,2070.00
2018-07-06T10:14:04.056Z,2345.63
2018-07-06T10:15:04.055Z,2677.50
2018-07-06T10:16:04.028Z,3571.88
2018-07-06T10:17:03.974Z,3757.50
2018-07-06T10:18:03.969Z,4005.00
2018-07-06T10:19:03.906Z,4578.75
2018-07-06T10:20:03.869Z,5158.13
2018-07-06T10:21:03.856Z,2666.25
2018-07-06T10:22:03.825Z,2283.75
2018-07-06T10:23:03.914Z,2154.38
2018-07-06T10:24:03.768Z,2205.00
2018-07-06T10:25:03.741Z,2435.63
2018-07-06T10:26:03.723Z,2728.13
2018-07-06T10:27:03.696Z,2615.63
2018-07-06T10:28:03.664Z,2559.38
2018-07-06T10:29:05.213Z,2570.63
2018-07-06T10:30:03.629Z,2525.63
2018-07-06T10:31:03.597Z,2255.63
2018-07-06T10:32:03.564Z,2002.50
2018-07-06T10:33:03.544Z,1732.50
2018-07-06T10:34:03.513Z,1597.50
2018-07-06T10:35:03.520Z,1569.38
2018-07-06T10:36:03.478Z,1620.00
2018-07-06T10:37:03.432Z,1693.13
2018-07-06T10:38:03.406Z,1749.38
2018-07-06T10:39:03.390Z,1800.00
2018-07-06T10:40:03.475Z,2120.63
2018-07-06T10:41:03.351Z,5388.75
2018-07-06T10:42:03.332Z,6502.50
2018-07-06T10:43:03.282Z,5079.38
2018-07-06T10:44:03.263Z,3470.63
2018-07-06T10:45:03.224Z,3830.63
2018-07-06T10:46:03.236Z,4286.25
2018-07-06T10:47:03.194Z,5715.00
2018-07-06T10:48:03.173Z,3290.63
2018-07-06T10:49:03.129Z,2745.00
2018-07-06T10:50:03.106Z,2491.88
2018-07-06T10:51:03.070Z,2385.00
2018-07-06T10:52:03.053Z,1963.13
2018-07-06T10:53:03.042Z,1800.00
2018-07-06T10:54:03.001Z,1850.63
2018-07-06T10:55:02.977Z,1929.38
2018-07-06T10:56:02.948Z,1693.13
2018-07-06T10:57:02.932Z,1620.00
2018-07-06T10:58:02.900Z,1614.38
2018-07-06T10:59:02.889Z,1715.63
2018-07-06T11:00:02.847Z,1890.00
2018-07-06T11:01:02.834Z,2160.00
2018-07-06T11:02:02.839Z,2418.75
2018-07-06T11:03:02.774Z,2598.75
2018-07-06T11:04:02.782Z,2683.13
2018-07-06T11:05:02.904Z,3110.63
2018-07-06T11:06:02.699Z,2688.75
2018-07-06T11:07:02.674Z,2581.88
2018-07-06T11:08:02.667Z,2396.25
2018-07-06T11:09:02.646Z,2300.63
2018-07-06T11:10:02.660Z,2306.25
2018-07-06T11:11:02.638Z,2385.00
2018-07-06T11:12:02.602Z,2475.00
2018-07-06T11:13:02.564Z,2160.00
2018-07-06T11:14:02.572Z,1828.13
2018-07-06T11:15:02.475Z,1755.00
2018-07-06T11:16:02.452Z,1771.88
2018-07-06T11:17:02.417Z,1805.63
2018-07-06T11:18:02.403Z,1918.13
2018-07-06T11:19:02.453Z,2227.50
2018-07-06T11:20:02.350Z,2970.00
2018-07-06T11:21:05.324Z,5293.13
2018-07-06T11:22:02.320Z,2598.75
2018-07-06T11:23:02.269Z,2368.13
2018-07-06T11:24:02.256Z,2238.75
2018-07-06T11:25:02.259Z,2160.00
2018-07-06T11:26:02.239Z,2137.50
2018-07-06T11:27:02.190Z,2199.38
2018-07-06T11:28:02.159Z,2205.00
2018-07-06T11:29:02.126Z,2154.38
2018-07-06T11:30:02.095Z,2171.25
2018-07-06T11:31:02.057Z,2323.13
2018-07-06T11:32:02.044Z,2446.88
2018-07-06T11:33:02.026Z,2542.50
2018-07-06T11:34:01.983Z,2761.88
2018-07-06T11:35:01.959Z,5096.25
2018-07-06T11:36:01.954Z,6249.38
2018-07-06T11:37:01.899Z,3009.38
2018-07-06T11:38:01.977Z,2936.25
2018-07-06T11:39:01.879Z,2700.00
2018-07-06T11:40:01.836Z,2441.25
2018-07-06T11:41:01.819Z,2137.50
2018-07-06T11:42:01.780Z,2019.38
2018-07-06T11:43:01.755Z,2036.25
2018-07-06T11:44:01.732Z,2109.38
2018-07-06T11:45:01.793Z,2261.25
2018-07-06T11:46:01.674Z,2328.75
2018-07-06T11:47:01.677Z,3262.50
2018-07-06T11:48:01.640Z,5101.88
2018-07-06T11:49:01.610Z,2998.13
2018-07-06T11:50:01.566Z,5748.75
2018-07-06T11:51:01.553Z,2913.75
2018-07-06T11:52:01.538Z,2711.25
2018-07-06T11:53:01.506Z,2328.75
2018-07-06T11:54:01.481Z,2334.38
2018-07-06T11:55:01.469Z,2452.50
2018-07-06T11:56:01.468Z,7025.63
2018-07-06T11:57:01.406Z,6277.50
2018-07-06T11:58:01.375Z,2401.88
2018-07-06T11:59:01.366Z,2255.63
2018-07-06T12:00:01.337Z,2739.38
2018-07-06T12:01:01.316Z,5073.75
2018-07-06T12:02:01.296Z,2002.50
2018-07-06T12:03:01.264Z,2340.00
2018-07-06T12:04:01.259Z,5535.00
2018-07-06T12:05:01.224Z,2525.63
2018-07-06T12:06:01.180Z,2778.75
2018-07-06T12:07:01.154Z,3138.75
2018-07-06T12:08:01.135Z,2615.63
2018-07-06T12:09:01.109Z,2480.63
2018-07-06T12:10:01.076Z,6519.38
2018-07-06T12:11:01.051Z,3656.25
2018-07-06T12:12:01.036Z,2818.13
2018-07-06T12:13:01.021Z,2491.88
2018-07-06T12:14:00.980Z,2385.00
2018-07-06T12:15:00.987Z,2362.50
2018-07-06T12:16:00.975Z,2193.75
2018-07-06T12:17:00.904Z,2086.88
2018-07-06T12:18:00.883Z,1968.75
2018-07-06T12:19:00.879Z,1878.75
2018-07-06T12:20:00.900Z,1861.88
2018-07-06T12:21:00.901Z,1957.50
2018-07-06T12:22:00.816Z,2176.88
2018-07-06T12:23:00.785Z,2553.75
2018-07-06T12:24:00.775Z,3650.63
2018-07-06T12:25:00.802Z,3031.88
2018-07-06T12:26:00.761Z,3065.63
2018-07-06T12:27:00.692Z,5287.50
2018-07-06T12:28:00.666Z,5945.63
2018-07-06T12:29:00.668Z,3037.50
2018-07-06T12:30:00.599Z,5827.50